Rock Island, WA

2:41 PM PST on January 23, 2018 (GMT -0800)
MTPALI | | Change Station
Active Advisory: Winter Weather Advisory

Elev 829 ft 47.30 °N, 120.07 °W | Updated 7 minutes ago

Light Snow
Light Snow Mist
33.0 °F
Feels Like 33.0 °F
N
0.0
Wind Variable Wind from North
Gusts 1.0 mph

Today
High -- | Low -- °F
--% Chance of Precip.
Yesterday
High -- | Low -- °F
Precip. -- in
Pressure 30.01 in
Visibility 0.8 miles
Clouds Overcast 200 ft
Dew Point 31.0 °F
Humidity 93%
Rainfall in
Snow Depth Not available.
7:36 AM 4:48 PM
Waxing Crescent, 40% visible
SPECI KEAT 232239Z AUTO 00000KT 3/4SM -SN BR OVC002 M01/M01 A3001 RMK AO2 P0001 T10111011
Pressure 30.01 in
Visibility 0.8 miles
Clouds Overcast 200 ft
Dew Point 31.0 °F
Humidity 93%
Rainfall in
Snow Depth Not available.
7:36 AM 4:48 PM
Waxing Crescent, 40% visible
SPECI KEAT 232239Z AUTO 00000KT 3/4SM -SN BR OVC002 M01/M01 A3001 RMK AO2 P0001 T10111011

Get Your Daily Forecast Email!

Thanks for signing up!

Be on the lookout for a verification email in your inbox.

You'll start receiving severe weather alerts in your inbox..

×

10-Day Weather Forecast

Almanac

Astronomy

Jan. 23, 2018 Rise Set
Actual Time
Civil Twilight
Nautical Twilight
Astronomical Twilight
Moon
Length of Visible Light
Length of Day
Tomorrow will be .
, % of the Moon is Illuminated

Today's Extremes

State Highs State Lows

Community

WunderPhotos

Category 6

Welcome to Category 6. This is the collective home for Weather Underground's featured writeups by Dr. Jeff Masters (right), Bob Henson (left), Chris Burt, and other regular contributors.

Nearby

Air Quality

  Air Quality AQ Index Pollutant
Not available.

Snow Depth

Station Depth Elevation

Earthquake Activity

City Distance Mag. Time & Date
Minimum magnitude displayed is 2.5.

Coastal Water Temperatures

Place Temperature

Stations

Nearby Weather Stations

Station Location Temp. Windchill Dew Point Humidity Wind Precip. Elev Updated Type
                   

Watches & Warnings

Winter Weather Advisory
Issued: 2:34 PM PST Jan. 23, 2018 – National Weather Service

... Winter Weather Advisory remains in effect until 4 am PST
Wednesday above 1500 feet...

* what... snow occurring. Plan on difficult travel conditions,
including during the evening commute. Additional snow
accumulations of 1 to 3 inches, with localized amounts up to 6
inches across the higher elevations, are expected.

* Where... Waterville, Mansfield, and Badger Mountain Road.

* When... until 4 am Wednesday.

* Additional details... be prepared for reduced visibilities at
times.

Precautionary/preparedness actions...

A Winter Weather Advisory for snow means periods of snow will
cause primarily travel difficulties. Be prepared for snow covered
roads and limited visibilities, and use caution while driving.
The latest Road conditions for the state you are calling from can
be obtained by calling 5 1 1.